Time;durP1;ratioP1;P1;durP2;ratioP2;P2;SDS_P1;SDS_P2;PMS_P1;PMS_P2;Temp;Humidity;BMP_temperature;BMP_pressure;BME280_temperature;BME280_humidity;BME280_pressure;Samples;Min_cycle;Max_cycle;Signal;HPM_P1;HPM_P2
2023/03/26 00:02:38;;;;;;;15.85;3.30;;;;;;;19.83;40.99;100666.69;16121178;19;131126;-42
2023/03/26 00:08:01;;;;;;;17.55;3.33;;;;;;;19.80;41.46;100668.06;16123396;19;130543;-41
2023/03/26 00:13:23;;;;;;;18.67;3.30;;;;;;;19.77;41.08;100662.22;16117208;19;130751;-41
2023/03/26 00:18:46;;;;;;;20.48;3.10;;;;;;;19.75;41.29;100658.84;16121056;19;132291;-44
2023/03/26 00:24:13;;;;;;;19.75;3.30;;;;;;;19.72;41.18;100642.72;16121673;19;129575;-44
2023/03/26 00:29:36;;;;;;;19.40;3.90;;;;;;;19.68;41.20;100636.84;16120476;19;131121;-42
2023/03/26 00:34:59;;;;;;;16.83;3.20;;;;;;;19.66;41.30;100633.50;16124435;19;129206;-42
2023/03/26 00:40:22;;;;;;;18.30;3.25;;;;;;;19.63;40.89;100628.50;16124869;19;132940;-42
2023/03/26 00:45:52;;;;;;;20.05;3.72;;;;;;;19.61;41.05;100612.09;16118597;19;131014;-43
2023/03/26 00:51:17;;;;;;;17.23;3.17;;;;;;;19.58;41.09;100614.53;16121507;19;130441;-41
2023/03/26 00:56:38;;;;;;;10.05;2.42;;;;;;;19.56;40.93;100605.63;16119716;19;130386;-41
2023/03/26 01:02:01;;;;;;;12.77;2.78;;;;;;;19.53;41.23;100595.91;16116821;19;129546;-44
2023/03/26 01:07:27;;;;;;;11.23;2.75;;;;;;;19.51;40.80;100593.38;16119956;19;131846;-41
2023/03/26 01:12:49;;;;;;;9.27;2.15;;;;;;;19.50;41.25;100588.09;16116819;19;129292;-45
2023/03/26 01:18:12;;;;;;;10.45;2.55;;;;;;;19.48;40.83;100584.75;16117011;19;131926;-42
2023/03/26 01:23:48;;;;;;;10.32;3.00;;;;;;;19.46;40.91;100568.38;16116844;19;130624;-42
2023/03/26 01:29:38;;;;;;;14.03;3.07;;;;;;;19.45;40.74;100566.69;16116286;19;129604;-43
2023/03/26 01:35:24;;;;;;;15.18;3.30;;;;;;;19.44;40.79;100561.41;16112768;19;130846;-41
2023/03/26 01:40:53;;;;;;;;;;;;;;;19.36;40.97;100549.66;16112903;19;131256;-41
2023/03/26 01:46:18;;;;;;;10.20;2.85;;;;;;;19.38;40.67;100549.41;16115621;19;131014;-43
2023/03/26 01:51:41;;;;;;;10.45;2.88;;;;;;;19.36;40.74;100537.75;16108648;19;132341;-41
2023/03/26 01:57:06;;;;;;;14.20;3.45;;;;;;;19.34;40.94;100531.63;16118862;19;131001;-43
2023/03/26 02:02:53;;;;;;;11.67;2.40;;;;;;;19.32;40.81;100515.22;16117680;19;131203;-42
2023/03/26 02:08:23;;;;;;;10.70;3.08;;;;;;;19.30;40.86;100503.56;16119341;19;132674;-42
2023/03/26 02:13:45;;;;;;;7.85;2.20;;;;;;;19.30;41.11;100492.47;16113148;19;129438;-41
2023/03/26 02:19:14;;;;;;;11.85;2.63;;;;;;;19.27;40.66;100472.72;16114963;19;131274;-42
2023/03/26 02:24:37;;;;;;;8.23;2.45;;;;;;;19.25;40.64;100473.00;16114239;19;133478;-42
2023/03/26 02:29:59;;;;;;;6.70;2.25;;;;;;;19.24;40.77;100471.31;16116705;19;129489;-43
2023/03/26 02:35:21;;;;;;;8.65;2.28;;;;;;;19.23;40.72;100458.56;16112634;19;134157;-41
2023/03/26 02:40:43;;;;;;;10.43;2.40;;;;;;;19.22;40.73;100451.31;16113818;19;130853;-43
2023/03/26 02:46:05;;;;;;;8.68;2.45;;;;;;;19.20;41.04;100451.56;16112108;19;132584;-42
2023/03/26 02:51:27;;;;;;;8.98;2.05;;;;;;;19.20;40.76;100436.88;16104999;19;130094;-41
2023/03/26 02:56:49;;;;;;;8.73;2.40;;;;;;;19.18;40.84;100416.88;16113215;19;130591;-49
2023/03/26 03:02:12;;;;;;;7.43;2.40;;;;;;;19.17;41.11;100409.66;16112422;19;130987;-44
2023/03/26 03:07:36;;;;;;;9.50;2.00;;;;;;;19.15;40.85;100401.59;16107797;19;130207;-42
2023/03/26 03:12:58;;;;;;;8.93;2.28;;;;;;;19.15;40.57;100396.03;16112542;19;129624;-42
2023/03/26 03:18:20;;;;;;;7.60;2.30;;;;;;;19.14;41.03;100374.13;16113189;19;129902;-41
2023/03/26 03:23:42;;;;;;;9.02;2.13;;;;;;;19.11;41.09;100358.88;16111918;19;131007;-41
2023/03/26 03:29:04;;;;;;;6.85;1.80;;;;;;;19.09;40.77;100352.75;16112042;19;129822;-42
2023/03/26 03:34:26;;;;;;;8.23;2.20;;;;;;;19.10;40.92;100336.94;16117566;19;131172;-43
2023/03/26 03:39:48;;;;;;;8.30;1.98;;;;;;;19.07;40.96;100322.53;16120991;19;130725;-41
2023/03/26 03:45:10;;;;;;;12.02;2.70;;;;;;;19.05;40.50;100310.88;16121793;19;130894;-42
2023/03/26 03:50:32;;;;;;;11.57;2.30;;;;;;;19.03;40.72;100290.88;16124495;19;130511;-43
2023/03/26 03:55:57;;;;;;;9.40;1.95;;;;;;;19.02;40.71;100289.22;16120596;19;133878;-41
2023/03/26 04:01:21;;;;;;;5.50;1.65;;;;;;;19.01;40.30;100273.66;16126038;19;130484;-40
2023/03/26 04:06:43;;;;;;;9.50;2.08;;;;;;;19.03;40.27;100270.63;16120149;19;131646;-41
2023/03/26 04:12:05;;;;;;;4.05;1.42;;;;;;;19.04;40.61;100267.59;16123479;19;130991;-44
2023/03/26 04:17:29;;;;;;;11.38;2.47;;;;;;;19.03;40.54;100254.84;16118031;19;130791;-41
2023/03/26 04:22:51;;;;;;;7.85;2.15;;;;;;;19.02;40.46;100225.44;16123163;19;129885;-41
2023/03/26 04:28:34;;;;;;;5.47;2.03;;;;;;;19.02;40.42;100224.59;16121668;19;130241;-41
2023/03/26 04:34:05;;;;;;;9.75;2.03;;;;;;;19.00;40.35;100208.25;16122924;19;129490;-48
2023/03/26 04:39:28;;;;;;;6.25;1.67;;;;;;;18.97;40.14;100203.22;16125181;19;129392;-42
2023/03/26 04:44:51;;;;;;;5.35;1.50;;;;;;;18.96;40.37;100193.22;16117993;19;130236;-42
2023/03/26 04:50:13;;;;;;;5.47;1.60;;;;;;;18.95;40.19;100179.66;16120093;19;130623;-42
2023/03/26 04:56:14;;;;;;;7.43;2.00;;;;;;;18.93;40.18;100166.06;16118295;19;129798;-43
2023/03/26 05:01:36;;;;;;;7.40;1.92;;;;;;;18.90;40.27;100161.06;16116497;19;129894;-42
2023/03/26 05:06:58;;;;;;;9.90;2.00;;;;;;;18.88;40.17;100141.94;16121785;19;129538;-43
2023/03/26 05:12:20;;;;;;;5.22;1.92;;;;;;;18.87;40.21;100139.41;16119366;19;129640;-42
2023/03/26 05:17:42;;;;;;;6.30;1.88;;;;;;;18.87;40.20;100139.41;16116479;19;129789;-42
2023/03/26 05:23:04;;;;;;;10.40;2.42;;;;;;;18.85;40.47;100130.53;16118890;19;129371;-42
2023/03/26 05:28:27;;;;;;;8.32;1.98;;;;;;;18.85;40.47;100114.75;16117795;19;129431;-41
2023/03/26 05:33:49;;;;;;;8.25;2.00;;;;;;;18.84;40.39;100117.78;16118216;19;131777;-42
2023/03/26 05:39:13;;;;;;;5.63;1.80;;;;;;;18.83;40.32;100116.13;16119225;19;129323;-42
2023/03/26 05:44:35;;;;;;;5.35;2.00;;;;;;;18.86;40.21;100104.47;16114189;19;129640;-41
2023/03/26 05:49:56;;;;;;;8.00;1.88;;;;;;;;;;16116846;19;135495;-41
2023/03/26 05:55:18;;;;;;;6.63;1.60;;;;;;;19.12;40.32;100096.31;16116730;19;130347;-42
2023/03/26 06:00:41;;;;;;;5.95;1.55;;;;;;;19.32;39.71;100088.09;16119094;19;129800;-41
2023/03/26 06:06:06;;;;;;;5.15;1.83;;;;;;;19.47;39.75;100083.72;16115880;19;129703;-42
2023/03/26 06:11:28;;;;;;;;;;;;;;;19.52;39.52;100078.19;16117951;19;130956;-42
2023/03/26 06:16:50;;;;;;;4.53;1.50;;;;;;;19.57;39.34;100069.06;16114262;19;129713;-45
2023/03/26 06:22:12;;;;;;;4.55;1.50;;;;;;;19.54;39.34;100059.34;16115468;19;131454;-41
2023/03/26 06:27:34;;;;;;;14.15;2.00;;;;;;;19.47;39.26;100050.44;16114320;19;132264;-41
2023/03/26 06:32:56;;;;;;;22.60;2.13;;;;;;;19.45;39.75;100055.41;16110476;19;129570;-43
2023/03/26 06:38:18;;;;;;;23.50;2.33;;;;;;;19.44;39.54;100059.31;16113506;19;129922;-42
2023/03/26 06:43:40;;;;;;;13.75;1.98;;;;;;;19.38;39.73;100044.59;16112957;19;129706;-41
2023/03/26 06:49:02;;;;;;;15.25;2.03;;;;;;;19.35;39.41;100047.91;16108835;19;131520;-40
2023/03/26 06:54:24;;;;;;;12.43;1.90;;;;;;;19.31;39.64;100044.88;16114679;19;129240;-41
2023/03/26 06:59:46;;;;;;;22.77;2.80;;;;;;;19.28;39.46;100037.06;16108369;19;129361;-41
2023/03/26 07:05:08;;;;;;;16.15;1.65;;;;;;;19.24;39.47;100037.91;16108752;19;130827;-43
2023/03/26 07:10:30;;;;;;;17.05;2.10;;;;;;;19.21;39.70;100028.16;16108051;19;129823;-39
2023/03/26 07:15:52;;;;;;;17.40;1.98;;;;;;;19.17;39.45;100021.47;16109033;19;129986;-41
2023/03/26 07:21:14;;;;;;;9.95;1.88;;;;;;;19.13;39.76;100026.75;16110518;19;131087;-41
2023/03/26 07:26:59;;;;;;;14.88;1.77;;;;;;;19.11;39.75;100019.78;16111085;19;129709;-42
2023/03/26 07:32:27;;;;;;;7.30;1.55;;;;;;;19.06;39.77;100010.38;16110393;19;129027;-41
2023/03/26 07:37:52;;;;;;;10.07;1.55;;;;;;;19.03;39.85;100010.91;16111769;19;129570;-40
2023/03/26 07:43:32;;;;;;;7.63;1.23;;;;;;;19.04;39.60;100001.47;16109568;19;130481;-45
2023/03/26 07:48:57;;;;;;;9.45;1.73;;;;;;;19.02;39.64;99995.38;16113127;19;130261;-42
2023/03/26 07:54:19;;;;;;;7.75;1.80;;;;;;;19.10;39.07;99987.63;16106337;19;129869;-40
2023/03/26 07:59:58;;;;;;;7.68;1.40;;;;;;;19.25;39.07;99990.47;16108155;19;129414;-43
2023/03/26 08:05:29;;;;;;;6.38;1.40;;;;;;;19.37;39.07;99979.97;16107206;19;130096;-42
2023/03/26 08:11:06;;;;;;;8.43;1.95;;;;;;;19.47;38.82;99981.09;16104665;19;132482;-41
2023/03/26 08:16:43;;;;;;;;;;;;;;;19.52;38.82;99978.31;16108474;19;129839;-41
2023/03/26 08:22:26;;;;;;;;;;;;;;;19.58;38.63;99974.44;16117274;19;129277;-42
2023/03/26 08:27:57;;;;;;;9.75;1.67;;;;;;;19.66;38.60;99976.69;16114586;19;129437;-42
2023/03/26 08:33:21;;;;;;;13.27;1.63;;;;;;;19.69;38.82;99966.97;16118491;19;129281;-42
2023/03/26 08:38:43;;;;;;;7.28;1.38;;;;;;;19.73;38.35;99978.34;16121443;19;129429;-40
2023/03/26 08:44:20;;;;;;;7.50;1.40;;;;;;;19.74;38.65;99969.75;16123599;19;129479;-41
2023/03/26 08:49:44;;;;;;;6.18;1.15;;;;;;;19.75;38.58;99973.34;16119465;19;130279;-40
2023/03/26 08:55:39;;;;;;;10.03;1.47;;;;;;;19.71;38.30;99969.44;16121700;19;130340;-40
2023/03/26 09:01:35;;;;;;;8.13;1.40;;;;;;;19.65;38.39;99961.13;16110628;19;131168;-42
2023/03/26 09:07:18;;;;;;;9.70;0.95;;;;;;;19.62;38.33;99961.69;16113795;19;130173;-40
2023/03/26 09:13:25;;;;;;;4.97;1.17;;;;;;;19.73;38.47;99961.69;16109518;19;130025;-40
2023/03/26 09:19:05;;;;;;;7.20;0.80;;;;;;;19.84;38.55;99952.25;16106875;19;130888;-41
2023/03/26 09:25:01;;;;;;;14.80;1.67;;;;;;;19.94;38.44;99954.19;16102575;19;131160;-40
2023/03/26 09:30:35;;;;;;;18.90;1.13;;;;;;;19.95;38.51;99948.34;16102945;19;130083;-42
2023/03/26 09:36:15;;;;;;;18.15;1.80;;;;;;;19.97;37.95;99950.88;16114640;19;130529;-40
2023/03/26 09:41:51;;;;;;;11.55;1.38;;;;;;;19.95;38.17;99959.44;16114839;19;130690;-41
2023/03/26 09:47:40;;;;;;;13.88;1.50;;;;;;;19.90;38.16;99959.47;16119164;19;129447;-40
2023/03/26 09:53:25;;;;;;;8.88;1.30;;;;;;;19.85;38.04;99962.22;16113347;19;131339;-41
2023/03/26 09:59:09;;;;;;;10.02;1.25;;;;;;;19.78;38.42;99976.38;16113476;19;131077;-41
2023/03/26 10:04:50;;;;;;;7.47;1.25;;;;;;;19.73;38.03;99979.19;16118033;19;129376;-40
2023/03/26 10:10:30;;;;;;;10.40;1.23;;;;;;;19.66;38.22;99978.59;16121244;19;129371;-40
2023/03/26 10:16:04;;;;;;;4.72;1.13;;;;;;;19.59;38.02;99987.19;16118166;19;129422;-40
2023/03/26 10:21:36;;;;;;;5.65;0.90;;;;;;;19.52;38.45;99983.88;16120257;19;130247;-42
2023/03/26 10:27:28;;;;;;;3.72;1.05;;;;;;;19.46;38.13;99991.34;16120561;19;130517;-40
2023/03/26 10:33:09;;;;;;;6.32;0.98;;;;;;;19.40;38.33;99992.44;16115587;19;129919;-41
2023/03/26 10:38:45;;;;;;;4.97;0.75;;;;;;;19.35;38.31;100000.78;16112155;19;129693;-41
2023/03/26 10:44:27;;;;;;;16.08;1.25;;;;;;;19.27;37.89;100001.28;16112130;19;129699;-44
2023/03/26 10:50:15;;;;;;;6.82;1.10;;;;;;;19.21;37.84;100003.22;16108128;19;131421;-40
2023/03/26 10:55:51;;;;;;;4.70;1.08;;;;;;;19.19;38.02;100010.97;16115465;19;130259;-40
2023/03/26 11:01:42;;;;;;;13.98;1.15;;;;;;;19.33;37.52;100014.06;16114297;19;129480;-44
2023/03/26 11:07:44;;;;;;;3.22;0.73;;;;;;;19.61;37.54;100021.06;16116211;19;131196;-40
2023/03/26 11:13:34;;;;;;;8.60;0.88;;;;;;;19.90;36.96;100028.00;16116119;19;129322;-41
2023/03/26 11:19:19;;;;;;;5.75;0.90;;;;;;;20.10;37.13;100036.41;16117316;19;129505;-41
2023/03/26 11:24:59;;;;;;;2.35;0.52;;;;;;;20.14;36.66;100039.44;16115860;19;131426;-40
2023/03/26 11:30:52;;;;;;;6.97;0.85;;;;;;;20.14;37.08;100039.44;16112031;19;130731;-40
2023/03/26 11:36:23;;;;;;;1.40;0.50;;;;;;;20.09;36.95;100050.53;16111176;19;129854;-43
2023/03/26 11:41:46;;;;;;;5.75;0.90;;;;;;;19.97;36.87;100051.63;16112533;19;131390;-40
2023/03/26 11:47:11;;;;;;;6.97;0.93;;;;;;;19.87;36.93;100062.72;16112941;19;129405;-40
2023/03/26 11:52:32;;;;;;;12.13;1.20;;;;;;;19.80;36.96;100067.72;16111296;19;130871;-42
2023/03/26 11:57:58;;;;;;;4.28;0.77;;;;;;;19.73;37.25;100072.69;16124601;19;129731;-42
2023/03/26 12:03:20;;;;;;;3.90;0.60;;;;;;;19.66;37.03;100073.78;16125723;19;134410;-41
2023/03/26 12:08:42;;;;;;;4.20;0.80;;;;;;;19.61;37.35;100070.19;16125118;19;130353;-42
2023/03/26 12:14:04;;;;;;;2.63;0.73;;;;;;;19.54;37.67;100081.53;16124041;19;129476;-42
2023/03/26 12:19:32;;;;;;;4.43;0.70;;;;;;;19.50;37.39;100083.19;16122190;19;128900;-40
2023/03/26 12:25:16;;;;;;;5.45;0.57;;;;;;;19.46;37.45;100084.81;16127258;19;129005;-40
2023/03/26 12:30:41;;;;;;;3.47;0.70;;;;;;;19.38;37.39;100098.13;16124984;19;130378;-40
2023/03/26 12:36:25;;;;;;;5.40;0.50;;;;;;;19.37;37.66;100110.31;16124272;19;131593;-40
2023/03/26 12:41:55;;;;;;;4.82;0.50;;;;;;;19.40;37.59;100117.25;16121280;19;132526;-40
2023/03/26 12:47:37;;;;;;;2.75;0.50;;;;;;;19.54;37.10;100114.84;16125164;19;129862;-39
2023/03/26 12:53:52;;;;;;;4.72;0.70;;;;;;;19.99;36.96;100126.31;16121952;19;129703;-39
2023/03/26 12:59:24;;;;;;;11.15;0.82;;;;;;;20.43;37.14;100128.59;16121536;19;129517;-42
2023/03/26 13:04:55;;;;;;;3.05;0.40;;;;;;;20.84;36.45;100130.53;16119644;19;129563;-40
2023/03/26 13:10:57;;;;;;;6.80;0.50;;;;;;;21.22;36.05;100141.28;16121591;19;129668;-42
2023/03/26 13:16:55;;;;;;;15.85;1.23;;;;;;;21.50;35.52;100145.38;16121795;19;129391;-41
2023/03/26 13:22:40;;;;;;;8.60;0.47;;;;;;;21.71;35.20;100147.25;16123329;19;129535;-41
2023/03/26 13:28:16;;;;;;;9.13;0.65;;;;;;;21.77;35.18;100157.22;16112231;19;129947;-41
2023/03/26 13:34:02;;;;;;;9.57;0.60;;;;;;;21.73;34.84;100170.03;16112031;19;129941;-40
2023/03/26 13:40:06;;;;;;;3.67;0.55;;;;;;;21.63;34.89;100174.53;16111999;19;129494;-40
2023/03/26 13:45:42;;;;;;;4.90;0.50;;;;;;;21.49;35.30;100174.31;16111450;19;129568;-40
2023/03/26 13:51:31;;;;;;;3.85;0.60;;;;;;;21.34;35.12;100188.25;16112600;19;131135;-42
2023/03/26 13:57:20;;;;;;;4.28;0.52;;;;;;;21.19;35.29;100192.72;16112391;19;129942;-43
2023/03/26 14:02:47;;;;;;;7.78;0.70;;;;;;;21.05;35.31;100197.22;16112674;19;130230;-39
2023/03/26 14:08:30;;;;;;;1.55;0.30;;;;;;;20.94;35.58;100206.69;16119290;19;129240;-40
2023/03/26 14:14:05;;;;;;;3.67;0.60;;;;;;;20.82;35.54;100209.75;16114844;19;130338;-40
2023/03/26 14:19:36;;;;;;;5.15;0.40;;;;;;;20.70;35.86;100213.63;16115202;19;129349;-40
2023/03/26 14:25:07;;;;;;;1.52;0.50;;;;;;;20.63;36.22;100226.13;16119834;19;130333;-43
2023/03/26 14:30:56;;;;;;;1.25;0.40;;;;;;;20.53;36.22;100230.56;16116646;19;129329;-41
2023/03/26 14:36:57;;;;;;;2.28;0.47;;;;;;;20.45;36.24;100236.66;16116965;19;130806;-41
2023/03/26 14:42:40;;;;;;;10.18;0.65;;;;;;;20.35;36.50;100247.75;16118182;19;129563;-42
2023/03/26 14:48:36;;;;;;;3.20;0.40;;;;;;;20.27;36.36;100258.31;16112257;19;129680;-43
2023/03/26 14:54:05;;;;;;;3.08;0.60;;;;;;;20.22;37.03;100274.13;16115207;19;129781;-41
2023/03/26 14:59:48;;;;;;;3.55;0.52;;;;;;;20.22;37.14;100283.28;16111207;19;129921;-41
2023/03/26 15:05:21;;;;;;;4.65;0.63;;;;;;;20.20;36.95;100291.03;16113860;19;129346;-42
2023/03/26 15:11:21;;;;;;;2.35;0.77;;;;;;;20.17;36.76;100299.09;16109392;19;129909;-42
2023/03/26 15:16:54;;;;;;;4.78;0.93;;;;;;;20.08;37.01;100315.44;16107923;19;131524;-43
2023/03/26 15:22:34;;;;;;;6.63;0.82;;;;;;;19.98;37.17;100325.38;16112007;19;129644;-41
2023/03/26 15:28:17;;;;;;;6.47;1.13;;;;;;;19.92;36.98;100334.78;16115139;19;130412;-41
2023/03/26 15:33:39;;;;;;;8.00;1.40;;;;;;;19.95;37.10;100359.22;16111471;19;129722;-40
2023/03/26 15:39:42;;;;;;;11.57;1.58;;;;;;;19.99;36.48;100363.16;16111945;19;130622;-45
2023/03/26 15:45:34;;;;;;;9.88;1.50;;;;;;;20.05;36.67;100379.88;16108252;19;129665;-42
2023/03/26 15:51:22;;;;;;;10.57;1.73;;;;;;;20.14;36.53;100400.47;16100939;19;130892;-42
2023/03/26 15:57:30;;;;;;;8.68;1.30;;;;;;;20.24;36.04;100416.34;16111198;19;129747;-43
2023/03/26 16:03:10;;;;;;;7.47;1.27;;;;;;;20.28;35.88;100418.31;16107446;19;129800;-43
2023/03/26 16:08:56;;;;;;;10.55;1.23;;;;;;;20.37;35.51;100435.28;16109979;19;130908;-44
2023/03/26 16:14:21;;;;;;;5.03;1.60;;;;;;;20.43;35.52;100442.53;16110953;19;130894;-41
2023/03/26 16:19:48;;;;;;;7.47;1.70;;;;;;;20.47;35.37;100445.59;16108221;19;130417;-42
2023/03/26 16:25:17;;;;;;;6.95;1.60;;;;;;;20.52;34.99;100459.53;16109728;19;129799;-44
2023/03/26 16:31:05;;;;;;;11.82;1.63;;;;;;;20.57;35.23;100469.84;16107800;19;130307;-42
2023/03/26 16:36:48;;;;;;;5.22;1.45;;;;;;;20.56;35.12;100485.66;16108752;19;130229;-44
2023/03/26 16:42:45;;;;;;;8.60;1.58;;;;;;;20.55;34.93;100503.47;16120292;19;129494;-42
2023/03/26 16:48:07;;;;;;;;;;;;;;;20.44;35.18;100510.91;16123181;19;131080;-42
2023/03/26 16:53:42;;;;;;;9.43;1.60;;;;;;;20.39;35.19;100523.94;16123995;19;130913;-42
2023/03/26 16:59:28;;;;;;;4.95;1.58;;;;;;;20.29;35.37;100541.34;16123380;19;130647;-44
2023/03/26 17:04:58;;;;;;;5.45;1.38;;;;;;;20.19;35.37;100558.78;16122749;19;131280;-41
2023/03/26 17:10:40;;;;;;;5.32;1.67;;;;;;;20.10;35.40;100568.72;16124207;19;129735;-43
2023/03/26 17:16:17;;;;;;;9.55;1.70;;;;;;;19.99;35.03;100593.63;16124437;19;129867;-43
2023/03/26 17:21:58;;;;;;;7.22;1.50;;;;;;;19.89;34.54;100617.63;16117663;19;129537;-47
2023/03/26 17:27:27;;;;;;;4.78;1.35;;;;;;;19.82;34.56;100621.47;16111585;19;131198;-50
2023/03/26 17:32:58;;;;;;;10.65;1.40;;;;;;;19.90;34.15;100636.81;16118425;19;130776;-47
2023/03/26 17:38:23;;;;;;;8.20;1.30;;;;;;;20.10;34.29;100649.25;16118828;19;129909;-48
2023/03/26 17:43:51;;;;;;;11.40;2.20;;;;;;;20.38;33.93;100663.94;16121693;19;132393;-47
2023/03/26 17:49:23;;;;;;;5.88;1.83;;;;;;;20.58;33.63;100677.16;16121249;19;131325;-53
2023/03/26 17:54:49;;;;;;;6.20;1.60;;;;;;;20.77;33.04;100688.75;16119552;19;131029;-51
2023/03/26 18:00:21;;;;;;;7.63;1.70;;;;;;;20.91;32.33;100703.00;16119444;19;129557;-45
2023/03/26 18:05:45;;;;;;;4.38;1.23;;;;;;;20.96;32.30;100707.78;16112971;19;130531;-52
2023/03/26 18:11:25;;;;;;;4.10;1.13;;;;;;;20.99;31.89;100721.16;16118305;19;130362;-40
2023/03/26 18:16:51;;;;;;;8.63;1.52;;;;;;;20.92;32.24;100735.28;16117224;19;130834;-41
2023/03/26 18:22:23;;;;;;;10.05;1.55;;;;;;;20.86;31.53;100748.31;16115885;19;129328;-40
2023/03/26 18:27:45;;;;;;;6.93;1.48;;;;;;;20.76;31.50;100745.44;16112221;19;129774;-43
2023/03/26 18:33:14;;;;;;;4.45;1.52;;;;;;;20.66;30.82;100759.22;16114775;19;132048;-41
2023/03/26 18:38:36;;;;;;;5.63;1.42;;;;;;;20.62;31.19;100777.53;16118807;19;129991;-42
2023/03/26 18:44:03;;;;;;;6.18;1.90;;;;;;;20.62;30.74;100799.78;16115995;19;130625;-40
2023/03/26 18:49:28;;;;;;;9.13;1.48;;;;;;;20.57;30.76;100812.50;16116115;19;129750;-40
2023/03/26 18:54:52;;;;;;;6.47;1.83;;;;;;;20.58;30.66;100830.84;16117234;19;130654;-40
2023/03/26 19:00:22;;;;;;;6.80;1.35;;;;;;;20.59;30.28;100849.22;16116155;19;130914;-40
2023/03/26 19:05:44;;;;;;;7.32;1.55;;;;;;;20.57;30.75;100854.19;16112607;19;129774;-39
2023/03/26 19:11:08;;;;;;;5.82;1.20;;;;;;;20.53;30.27;100872.50;16112345;19;129286;-40
2023/03/26 19:16:34;;;;;;;4.18;1.33;;;;;;;20.46;30.51;100882.97;16105284;19;130294;-42
2023/03/26 19:21:56;;;;;;;5.28;1.50;;;;;;;20.36;30.63;100891.19;16111569;19;129874;-43
2023/03/26 19:27:20;;;;;;;10.90;1.30;;;;;;;20.26;30.18;100898.31;16113442;19;133727;-39
2023/03/26 19:32:52;;;;;;;9.63;1.50;;;;;;;20.38;29.70;100906.50;16111001;19;129874;-42
2023/03/26 19:38:24;;;;;;;5.32;1.48;;;;;;;20.59;29.88;100929.00;16113770;19;130263;-39
2023/03/26 19:43:49;;;;;;;6.95;1.25;;;;;;;20.81;29.90;100942.88;16111843;19;131239;-40
2023/03/26 19:49:40;;;;;;;8.75;1.27;;;;;;;20.99;29.27;100961.16;16113461;19;131322;-43
2023/03/26 19:55:05;;;;;;;11.95;1.70;;;;;;;21.10;29.59;100973.25;16113385;19;129497;-41
2023/03/26 20:00:27;;;;;;;9.70;1.57;;;;;;;21.19;29.93;100980.00;16112570;19;130038;-44
2023/03/26 20:05:49;;;;;;;12.25;1.95;;;;;;;21.32;29.50;100977.91;16110999;19;130058;-40
2023/03/26 20:11:18;;;;;;;7.82;1.65;;;;;;;21.46;29.34;100993.06;16109135;19;130284;-40
2023/03/26 20:16:42;;;;;;;11.57;1.65;;;;;;;21.56;29.38;101008.19;16116943;19;130579;-42
2023/03/26 20:22:12;;;;;;;12.80;1.95;;;;;;;21.52;29.08;101008.75;16119629;19;130119;-41
2023/03/26 20:27:34;;;;;;;10.57;1.85;;;;;;;21.46;29.02;101032.03;16120707;19;129793;-41
2023/03/26 20:32:57;;;;;;;9.25;1.88;;;;;;;21.35;28.85;101041.38;16122412;19;129550;-43
2023/03/26 20:38:34;;;;;;;7.65;1.40;;;;;;;21.19;29.26;101055.13;16121519;19;130947;-42
2023/03/26 20:44:02;;;;;;;7.43;1.40;;;;;;;21.04;29.33;101075.25;16123492;19;133563;-41
2023/03/26 20:49:28;;;;;;;9.00;1.48;;;;;;;20.87;29.06;101069.75;16123615;19;128958;-42
2023/03/26 20:54:50;;;;;;;7.53;1.73;;;;;;;20.75;29.03;101097.69;16124512;19;129541;-41
2023/03/26 21:00:24;;;;;;;6.20;1.40;;;;;;;20.65;29.00;101105.03;16122870;19;129313;-42
2023/03/26 21:05:50;;;;;;;5.07;1.30;;;;;;;20.51;29.10;101118.41;16124980;19;129419;-42
2023/03/26 21:11:30;;;;;;;4.68;1.33;;;;;;;20.39;29.50;101124.09;16120302;19;132094;-41
2023/03/26 21:16:52;;;;;;;2.97;1.02;;;;;;;20.27;29.57;101150.03;16119072;19;130248;-40
2023/03/26 21:22:36;;;;;;;3.88;1.20;;;;;;;20.18;29.37;101150.69;16116926;19;129463;-40
2023/03/26 21:28:19;;;;;;;5.00;1.13;;;;;;;20.05;29.44;101158.25;16117637;19;130677;-41
2023/03/26 21:33:48;;;;;;;6.13;1.55;;;;;;;19.93;29.97;101166.63;16118042;19;130958;-40
2023/03/26 21:39:10;;;;;;;5.78;1.10;;;;;;;19.83;29.47;101169.19;16121589;19;129375;-40
2023/03/26 21:44:33;;;;;;;5.18;1.38;;;;;;;19.75;29.49;101187.09;16116567;19;131978;-41
2023/03/26 21:49:55;;;;;;;5.18;1.15;;;;;;;19.65;29.49;101193.28;16120950;19;134415;-42
2023/03/26 21:55:19;;;;;;;4.63;1.40;;;;;;;19.60;29.58;101211.78;16122747;19;129554;-42
2023/03/26 22:01:18;;;;;;;4.05;1.00;;;;;;;19.55;29.96;101233.84;16120135;19;129485;-41
2023/03/26 22:06:44;;;;;;;3.92;1.30;;;;;;;19.47;30.13;101237.84;16117300;19;130693;-43
2023/03/26 22:12:07;;;;;;;4.70;1.30;;;;;;;19.43;29.72;101245.00;16117782;19;131197;-41
2023/03/26 22:17:29;;;;;;;3.22;0.70;;;;;;;19.38;29.74;101254.88;16112017;19;129920;-41
2023/03/26 22:22:52;;;;;;;5.05;1.23;;;;;;;19.33;29.97;101265.03;16111853;19;129770;-42
2023/03/26 22:28:14;;;;;;;6.80;1.40;;;;;;;19.29;29.93;101267.44;16115076;19;130071;-40
2023/03/26 22:33:38;;;;;;;4.32;1.20;;;;;;;19.25;29.88;101270.94;16114156;19;130522;-43
2023/03/26 22:39:01;;;;;;;5.07;1.17;;;;;;;19.21;30.49;101284.44;16114759;19;130573;-42
2023/03/26 22:44:23;;;;;;;4.47;1.00;;;;;;;19.18;30.01;101307.94;16114416;19;130622;-43
2023/03/26 22:49:45;;;;;;;4.75;1.20;;;;;;;19.15;30.21;101318.66;16115140;19;130151;-40
2023/03/26 22:55:07;;;;;;;3.92;1.20;;;;;;;19.10;29.97;101349.03;16114466;19;130465;-41
2023/03/26 23:00:31;;;;;;;3.70;1.10;;;;;;;19.07;30.24;101359.53;16114125;19;130760;-41
2023/03/26 23:05:57;;;;;;;2.67;0.98;;;;;;;19.04;30.17;101365.56;16111146;19;131063;-43
2023/03/26 23:11:20;;;;;;;4.97;0.95;;;;;;;19.02;30.71;101367.72;16110180;19;130933;-44
2023/03/26 23:16:44;;;;;;;3.05;0.98;;;;;;;19.00;30.47;101380.97;16110105;19;131133;-40
2023/03/26 23:22:07;;;;;;;3.47;0.75;;;;;;;18.97;30.47;101395.31;16108565;19;129586;-41
2023/03/26 23:27:29;;;;;;;3.65;0.93;;;;;;;18.95;30.46;101397.50;16111606;19;130786;-41
2023/03/26 23:32:51;;;;;;;3.88;1.17;;;;;;;18.94;30.60;101404.13;16108937;19;130767;-41
2023/03/26 23:38:13;;;;;;;3.58;1.02;;;;;;;;;;16110126;19;129230;-42
2023/03/26 23:43:35;;;;;;;2.92;0.60;;;;;;;18.90;30.76;101420.34;16109114;19;130384;-41
2023/03/26 23:49:01;;;;;;;3.80;0.93;;;;;;;18.87;30.75;101436.63;16113685;19;131125;-41
2023/03/26 23:54:24;;;;;;;2.60;0.98;;;;;;;18.84;31.19;101435.19;16123739;19;132843;-42
2023/03/26 23:59:47;;;;;;;2.17;0.60;;;;;;;18.82;31.21;101444.81;16126152;19;130938;-44
